Time;durP1;ratioP1;P1;durP2;ratioP2;P2;SDS_P1;SDS_P2;PMS_P1;PMS_P2;Temp;Humidity;BMP_temperature;BMP_pressure;BME280_temperature;BME280_humidity;BME280_pressure;Samples;Min_cycle;Max_cycle;Signal;HPM_P1;HPM_P2
2021/08/15 00:01:22;;;;;;;10.45;3.08;;;;;;;18.23;69.94;101909.09;4971131;28;20022;-70
2021/08/15 00:03:49;;;;;;;10.70;3.85;;;;;;;18.20;70.66;101906.59;4985538;28;20041;-69
2021/08/15 00:06:14;;;;;;;6.65;2.90;;;;;;;18.17;70.23;101898.75;4970176;28;20093;-70
2021/08/15 00:08:40;;;;;;;13.07;3.45;;;;;;;18.11;70.68;101891.97;4970960;28;20501;-69
2021/08/15 00:11:05;;;;;;;8.80;2.92;;;;;;;18.10;71.04;101886.72;4970648;28;20516;-68
2021/08/15 00:13:30;;;;;;;7.03;2.90;;;;;;;18.05;71.10;101869.22;4985737;28;20136;-70
2021/08/15 00:15:56;;;;;;;8.45;3.00;;;;;;;18.04;71.19;101856.03;4993047;28;20176;-70
2021/08/15 00:18:21;;;;;;;4.80;2.55;;;;;;;17.98;71.36;101865.13;4984214;28;20031;-70
2021/08/15 00:20:47;;;;;;;9.13;3.20;;;;;;;17.97;71.36;101871.38;4966359;28;20030;-69
2021/08/15 00:23:12;;;;;;;13.43;3.03;;;;;;;17.97;71.78;101875.84;4961135;28;20031;-68
2021/08/15 00:25:37;;;;;;;14.25;3.30;;;;;;;17.97;71.75;101882.00;4969161;28;20030;-69
2021/08/15 00:28:03;;;;;;;6.95;3.05;;;;;;;17.97;71.54;101876.69;4985045;28;20278;-69
2021/08/15 00:30:28;;;;;;;7.95;2.90;;;;;;;17.95;71.68;101873.25;4970497;28;20026;-68
2021/08/15 00:32:54;;;;;;;8.45;3.15;;;;;;;17.93;71.75;101861.81;4970603;28;20055;-70
2021/08/15 00:35:19;;;;;;;6.88;3.08;;;;;;;17.89;71.82;101869.06;4969385;28;20026;-68
2021/08/15 00:37:45;;;;;;;9.10;3.28;;;;;;;17.85;71.90;101872.81;4970103;28;20077;-69
2021/08/15 00:40:11;;;;;;;5.60;2.70;;;;;;;17.83;71.85;101856.09;4969870;28;20080;-69
2021/08/15 00:42:37;;;;;;;16.42;3.50;;;;;;;17.79;72.79;101859.81;4970244;28;20049;-70
2021/08/15 00:45:03;;;;;;;6.72;2.67;;;;;;;17.72;72.91;101856.63;4969976;28;20023;-69
2021/08/15 00:47:30;;;;;;;6.38;2.83;;;;;;;17.73;72.45;101855.66;4977232;28;20030;-68
2021/08/15 00:49:56;;;;;;;10.23;3.00;;;;;;;17.70;72.06;101854.94;4969350;28;20416;-69
2021/08/15 00:52:21;;;;;;;11.57;3.10;;;;;;;17.67;72.27;101852.44;4969363;28;20035;-69
2021/08/15 00:54:46;;;;;;;6.60;2.83;;;;;;;17.66;72.16;101862.22;4970494;28;20101;-68
2021/08/15 00:57:11;;;;;;;10.45;3.10;;;;;;;17.64;72.27;101856.09;4968507;28;20110;-71
2021/08/15 00:59:40;;;;;;;8.57;2.80;;;;;;;17.62;72.87;101870.38;4969772;28;20106;-69
2021/08/15 01:02:07;;;;;;;6.63;2.78;;;;;;;17.57;72.78;101862.63;4968490;28;20035;-70
2021/08/15 01:04:34;;;;;;;7.78;3.30;;;;;;;17.53;73.35;101853.09;4969985;28;20147;-69
2021/08/15 01:06:59;;;;;;;6.70;3.05;;;;;;;17.51;73.29;101846.97;4969579;28;20480;-68
2021/08/15 01:09:24;;;;;;;7.63;2.97;;;;;;;17.49;73.11;101843.53;4969789;28;20029;-69
2021/08/15 01:11:50;;;;;;;9.02;2.92;;;;;;;17.48;73.61;101844.50;4969922;28;20419;-68
2021/08/15 01:14:15;;;;;;;10.23;3.30;;;;;;;17.51;73.35;101841.69;4968157;28;20023;-70
2021/08/15 01:16:44;;;;;;;6.63;2.80;;;;;;;17.52;73.40;101841.59;4969311;28;20480;-68
2021/08/15 01:19:10;;;;;;;7.28;2.95;;;;;;;17.53;73.19;101827.41;4969339;28;20019;-70
2021/08/15 01:21:37;;;;;;;9.82;3.38;;;;;;;17.50;73.39;101824.03;4971735;28;20118;-69
2021/08/15 01:24:04;;;;;;;8.50;3.05;;;;;;;17.51;73.09;101825.78;4971839;28;20077;-68
2021/08/15 01:26:29;;;;;;;6.53;3.53;;;;;;;17.51;73.23;101820.47;4972652;28;20046;-68
2021/08/15 01:28:55;;;;;;;11.48;3.30;;;;;;;17.51;73.43;101817.81;4971318;28;20026;-69
2021/08/15 01:31:24;;;;;;;9.18;3.30;;;;;;;17.49;73.79;101825.84;4972307;28;20026;-69
2021/08/15 01:33:49;;;;;;;7.53;3.38;;;;;;;17.49;73.54;101824.97;4972339;28;20495;-68
2021/08/15 01:36:17;;;;;;;7.80;3.35;;;;;;;17.48;73.47;101813.50;4972912;28;20026;-68
2021/08/15 01:38:43;;;;;;;8.60;3.35;;;;;;;17.45;73.86;101818.09;4987051;28;20022;-67
2021/08/15 01:41:10;;;;;;;7.03;3.05;;;;;;;17.43;73.84;101818.19;4973040;28;20057;-68
2021/08/15 01:43:50;;;;;;;7.70;3.05;;;;;;;17.43;73.71;101819.03;4972887;28;20385;-67
2021/08/15 01:46:17;;;;;;;11.30;3.10;;;;;;;17.40;74.49;101811.22;4973510;28;20935;-67
2021/08/15 01:48:42;;;;;;;8.63;3.22;;;;;;;17.38;74.06;101820.19;4986927;28;20042;-69
2021/08/15 01:51:08;;;;;;;9.48;2.92;;;;;;;17.37;73.74;101821.97;4972351;28;20477;-67
2021/08/15 01:53:33;;;;;;;7.13;3.08;;;;;;;17.37;74.08;101815.81;4972649;28;20061;-68
2021/08/15 01:55:58;;;;;;;9.65;3.38;;;;;;;17.33;73.97;101814.22;4973189;28;20033;-69
2021/08/15 01:58:24;;;;;;;9.40;3.47;;;;;;;17.30;74.21;101817.00;4972454;28;20042;-68
2021/08/15 02:00:49;;;;;;;8.90;3.40;;;;;;;17.27;74.06;101804.75;4972731;28;20033;-69
2021/08/15 02:03:14;;;;;;;7.75;3.13;;;;;;;17.26;73.78;101803.03;4972191;28;20037;-68
2021/08/15 02:05:41;;;;;;;10.45;3.72;;;;;;;17.24;73.74;101792.50;4972457;28;20156;-66
2021/08/15 02:08:07;;;;;;;10.60;3.70;;;;;;;17.24;73.57;101781.91;4972892;28;20472;-68
2021/08/15 02:10:32;;;;;;;8.38;3.63;;;;;;;17.27;73.80;101779.09;4972080;28;20030;-68
2021/08/15 02:12:59;;;;;;;7.72;3.53;;;;;;;17.29;73.91;101778.16;4973168;28;20030;-68
2021/08/15 02:15:25;;;;;;;9.48;3.30;;;;;;;17.26;73.97;101777.38;4971264;28;20472;-68
2021/08/15 02:17:50;;;;;;;8.27;3.35;;;;;;;17.26;73.93;101769.41;4973284;28;20042;-69
2021/08/15 02:20:18;;;;;;;13.73;4.43;;;;;;;17.27;73.75;101767.63;4972367;28;20480;-68
2021/08/15 02:22:44;;;;;;;10.52;4.05;;;;;;;17.27;74.22;101760.53;4971156;28;20063;-69
2021/08/15 02:25:11;;;;;;;12.30;3.97;;;;;;;17.25;73.37;101766.84;4969063;28;20023;-67
2021/08/15 02:27:37;;;;;;;9.05;3.55;;;;;;;17.27;73.88;101759.69;4970258;28;20081;-67
2021/08/15 02:30:04;;;;;;;9.73;3.92;;;;;;;17.30;73.36;101761.34;4971873;28;20113;-69
2021/08/15 02:32:30;;;;;;;12.10;4.18;;;;;;;17.31;73.79;101761.25;4972147;28;20570;-67
2021/08/15 02:34:55;;;;;;;9.93;4.40;;;;;;;17.31;73.43;101745.34;4969709;28;20101;-67
2021/08/15 02:37:20;;;;;;;9.90;4.05;;;;;;;17.30;74.06;101732.16;4970751;28;20029;-67
2021/08/15 02:39:46;;;;;;;11.15;4.38;;;;;;;17.31;74.27;101729.44;4970247;28;20102;-68
2021/08/15 02:42:11;;;;;;;14.25;4.60;;;;;;;17.30;74.32;101732.16;4970886;28;20538;-67
2021/08/15 02:44:36;;;;;;;13.95;4.72;;;;;;;17.28;74.42;101745.50;4970132;28;20476;-67
2021/08/15 02:47:02;;;;;;;10.57;4.07;;;;;;;17.28;74.08;101737.56;4970361;28;20031;-68
2021/08/15 02:49:27;;;;;;;11.80;4.10;;;;;;;17.27;74.52;101734.03;4970571;28;20089;-68
2021/08/15 02:51:52;;;;;;;15.63;4.78;;;;;;;17.25;74.86;101719.13;4970102;28;20023;-71
2021/08/15 02:54:18;;;;;;;16.15;4.65;;;;;;;17.22;75.11;101746.63;4970581;28;20023;-68
2021/08/15 02:56:43;;;;;;;12.77;3.80;;;;;;;17.20;74.80;101745.84;4969622;28;20096;-67
2021/08/15 02:59:10;;;;;;;10.82;3.95;;;;;;;17.15;75.55;101733.75;4970472;28;20494;-67
2021/08/15 03:01:35;;;;;;;12.07;4.10;;;;;;;17.10;76.14;101744.56;4970032;28;20026;-67
2021/08/15 03:04:00;;;;;;;13.15;5.13;;;;;;;17.08;76.34;101765.00;4969285;28;20027;-67
2021/08/15 03:06:26;;;;;;;15.73;4.72;;;;;;;17.07;76.25;101772.06;4969942;28;20023;-66
2021/08/15 03:08:51;;;;;;;15.05;4.65;;;;;;;17.09;76.23;101754.31;4969859;28;20019;-67
2021/08/15 03:11:16;;;;;;;11.18;4.70;;;;;;;17.08;76.58;101749.94;4969835;28;20489;-69
2021/08/15 03:13:44;;;;;;;13.35;4.72;;;;;;;17.06;76.52;101742.97;4969651;28;20022;-68
2021/08/15 03:16:09;;;;;;;17.23;4.68;;;;;;;17.04;76.90;101745.72;4968452;28;20022;-68
2021/08/15 03:18:34;;;;;;;11.85;4.78;;;;;;;17.00;76.74;101737.97;4970060;28;20042;-70
2021/08/15 03:20:59;;;;;;;13.63;4.28;;;;;;;16.99;76.92;101742.38;4984149;28;20027;-70
2021/08/15 03:23:25;;;;;;;12.85;4.43;;;;;;;17.00;77.37;101748.56;4984650;28;20031;-67
2021/08/15 03:25:50;;;;;;;11.23;4.53;;;;;;;17.00;77.44;101740.63;4969237;28;20054;-67
2021/08/15 03:28:15;;;;;;;13.30;4.75;;;;;;;17.00;77.29;101745.91;4969850;28;20018;-67
2021/08/15 03:30:41;;;;;;;11.52;4.55;;;;;;;16.98;77.70;101737.16;4969968;28;20094;-68
2021/08/15 03:33:06;;;;;;;15.93;5.55;;;;;;;16.96;78.14;101728.44;4968601;28;20392;-69
2021/08/15 03:35:31;;;;;;;13.43;5.15;;;;;;;16.94;78.26;101721.41;4969695;28;20214;-67
2021/08/15 03:37:57;;;;;;;14.70;5.18;;;;;;;16.96;78.17;101723.16;4969255;28;20022;-68
2021/08/15 03:40:22;;;;;;;11.40;4.80;;;;;;;16.95;77.84;101716.97;4969853;28;20391;-68
2021/08/15 03:42:47;;;;;;;12.52;5.07;;;;;;;16.94;78.46;101717.91;4968653;28;20448;-68
2021/08/15 03:45:13;;;;;;;11.50;4.78;;;;;;;16.91;78.67;101705.66;4969487;28;20034;-68
2021/08/15 03:47:38;;;;;;;13.02;4.32;;;;;;;16.95;78.79;101711.66;4967745;28;20466;-68
2021/08/15 03:50:06;;;;;;;20.17;5.35;;;;;;;16.95;78.54;101711.66;4974140;28;20033;-70
2021/08/15 03:52:38;;;;;;;13.15;5.05;;;;;;;16.96;78.10;101707.25;4983019;28;20056;-68
2021/08/15 03:55:04;;;;;;;12.45;5.93;;;;;;;16.97;78.85;101703.63;4982415;28;20058;-68
2021/08/15 03:57:29;;;;;;;13.13;4.78;;;;;;;16.98;78.61;101722.16;4978860;28;20038;-68
2021/08/15 03:59:54;;;;;;;14.55;4.88;;;;;;;17.00;78.64;101708.81;4976639;28;20384;-68
2021/08/15 04:02:20;;;;;;;12.13;5.25;;;;;;;16.98;78.87;101700.94;4991653;28;20022;-69
2021/08/15 04:04:45;;;;;;;14.20;4.57;;;;;;;16.98;79.05;101706.25;4978844;28;20085;-68
2021/08/15 04:07:10;;;;;;;14.85;4.95;;;;;;;16.99;78.99;101707.09;4978280;28;20089;-68
2021/08/15 04:09:36;;;;;;;19.10;5.35;;;;;;;16.94;79.34;101694.91;4980148;28;20037;-67
2021/08/15 04:12:01;;;;;;;14.70;4.85;;;;;;;16.92;79.62;101694.13;4978161;28;20030;-68
2021/08/15 04:14:26;;;;;;;17.33;4.88;;;;;;;16.90;79.69;101688.00;4982119;28;20019;-70
2021/08/15 04:16:52;;;;;;;15.40;5.60;;;;;;;16.88;79.18;101687.22;4978334;28;20027;-70
2021/08/15 04:19:17;;;;;;;12.32;5.35;;;;;;;16.86;79.97;101685.56;4984859;28;20030;-69
2021/08/15 04:21:42;;;;;;;17.55;5.18;;;;;;;16.84;79.96;101688.28;4979872;28;20026;-67
2021/08/15 04:24:08;;;;;;;11.10;4.90;;;;;;;16.82;80.16;101678.69;4980429;28;20022;-67
2021/08/15 04:26:33;;;;;;;13.68;4.60;;;;;;;16.81;80.28;101677.84;4978644;28;20050;-67
2021/08/15 04:28:58;;;;;;;19.52;5.32;;;;;;;16.78;80.45;101670.00;4989324;28;20023;-67
2021/08/15 04:31:23;;;;;;;17.45;5.40;;;;;;;16.79;80.91;101677.03;4966608;28;20365;-69
2021/08/15 04:33:49;;;;;;;13.18;6.05;;;;;;;16.76;81.19;101674.53;4968270;28;20114;-67
2021/08/15 04:36:15;;;;;;;12.95;5.28;;;;;;;16.74;81.60;101673.75;4968826;28;20484;-68
2021/08/15 04:38:40;;;;;;;17.55;5.63;;;;;;;16.76;81.73;101671.88;4968734;28;20065;-69
2021/08/15 04:41:05;;;;;;;13.88;5.20;;;;;;;16.75;81.55;101664.88;4967627;28;20113;-68
2021/08/15 04:43:32;;;;;;;13.07;5.10;;;;;;;16.77;82.00;101666.50;4982939;28;20042;-67
2021/08/15 04:45:57;;;;;;;10.85;5.25;;;;;;;16.79;81.89;101658.50;4978749;28;20023;-68
2021/08/15 04:48:22;;;;;;;18.15;6.05;;;;;;;16.80;82.35;101670.81;4983806;28;20019;-69
2021/08/15 04:50:48;;;;;;;14.75;5.07;;;;;;;16.80;81.88;101660.22;4989043;28;20498;-68
2021/08/15 04:53:13;;;;;;;12.98;5.72;;;;;;;16.81;81.74;101664.59;4984588;28;20058;-68
2021/08/15 04:55:39;;;;;;;15.20;5.90;;;;;;;16.84;81.77;101663.59;4979648;28;20030;-70
2021/08/15 04:58:04;;;;;;;12.52;5.93;;;;;;;16.84;81.99;101660.94;4969451;28;20106;-68
2021/08/15 05:00:30;;;;;;;20.90;6.30;;;;;;;16.83;82.20;101662.75;4965333;28;20022;-68
2021/08/15 05:02:55;;;;;;;15.85;6.30;;;;;;;16.83;81.88;101657.44;4971861;28;20042;-69
2021/08/15 05:05:20;;;;;;;13.43;5.85;;;;;;;16.86;81.85;101661.72;4971685;28;20544;-68
2021/08/15 05:07:46;;;;;;;14.68;6.13;;;;;;;16.88;82.01;101657.19;4972138;28;20101;-67
2021/08/15 05:10:11;;;;;;;14.30;6.13;;;;;;;16.89;81.86;101659.81;4971983;28;20531;-69
2021/08/15 05:12:37;;;;;;;16.05;5.80;;;;;;;16.91;81.57;101657.06;4979258;28;20519;-67
2021/08/15 05:15:03;;;;;;;15.82;6.10;;;;;;;16.91;81.73;101657.06;4978747;28;20031;-68
2021/08/15 05:17:28;;;;;;;18.23;5.68;;;;;;;16.96;81.14;101654.25;4978752;28;20354;-66
2021/08/15 05:19:54;;;;;;;17.50;5.70;;;;;;;16.94;81.61;101649.88;4970127;28;20105;-67
2021/08/15 05:22:19;;;;;;;17.08;6.38;;;;;;;16.96;81.60;101654.25;4986469;28;20015;-68
2021/08/15 05:24:44;;;;;;;20.83;6.53;;;;;;;16.99;81.94;101667.34;4950141;28;20468;-69
2021/08/15 05:27:10;;;;;;;13.43;6.25;;;;;;;17.04;81.42;101660.03;4971501;28;20031;-69
2021/08/15 05:29:35;;;;;;;16.85;6.25;;;;;;;17.10;81.20;101663.25;4972387;28;20451;-67
2021/08/15 05:32:00;;;;;;;19.98;6.43;;;;;;;17.18;80.64;101668.19;4975371;28;20743;-67
2021/08/15 05:34:26;;;;;;;15.82;5.78;;;;;;;17.20;80.54;101655.72;4972085;28;20431;-69
2021/08/15 05:36:51;;;;;;;15.13;6.07;;;;;;;17.21;80.66;101654.78;4971700;28;20436;-69
2021/08/15 05:39:16;;;;;;;14.68;5.63;;;;;;;17.23;80.55;101647.63;4971017;28;20506;-68
2021/08/15 05:41:42;;;;;;;14.13;5.60;;;;;;;17.23;80.26;101654.72;4966362;28;20039;-71
2021/08/15 05:44:07;;;;;;;20.95;6.60;;;;;;;17.24;80.25;101643.16;4971835;28;20034;-69
2021/08/15 05:46:32;;;;;;;19.85;6.30;;;;;;;17.26;80.21;101646.63;4971135;28;20116;-67
2021/08/15 05:48:57;;;;;;;17.15;6.40;;;;;;;17.28;80.30;101647.41;4971957;28;20018;-69
2021/08/15 05:51:23;;;;;;;17.02;6.10;;;;;;;17.31;80.25;101649.06;4971496;28;20038;-68
2021/08/15 05:53:48;;;;;;;14.18;5.32;;;;;;;17.34;80.31;101639.16;4970454;28;20023;-69
2021/08/15 05:56:13;;;;;;;18.73;5.53;;;;;;;17.36;80.12;101647.88;4971423;28;20045;-68
2021/08/15 05:58:39;;;;;;;15.88;6.05;;;;;;;17.38;79.85;101640.72;4970673;28;20153;-68
2021/08/15 06:01:04;;;;;;;19.10;6.03;;;;;;;17.45;79.56;101646.56;4975346;28;20038;-67
2021/08/15 06:03:29;;;;;;;19.50;5.72;;;;;;;17.49;79.25;101648.16;4973019;28;20037;-67
2021/08/15 06:05:55;;;;;;;17.00;5.82;;;;;;;17.50;79.37;101641.91;4968572;28;20118;-70
2021/08/15 06:08:20;;;;;;;15.55;6.10;;;;;;;17.57;78.82;101648.63;4970445;28;20106;-68
2021/08/15 06:10:45;;;;;;;15.07;5.88;;;;;;;17.65;78.79;101648.25;4974196;28;20384;-69
2021/08/15 06:13:11;;;;;;;15.30;6.07;;;;;;;17.67;79.28;101650.81;4970885;28;20069;-67
2021/08/15 06:15:36;;;;;;;17.05;6.30;;;;;;;17.69;79.00;101641.84;4971010;28;20097;-68
2021/08/15 06:18:01;;;;;;;19.05;5.68;;;;;;;17.69;78.95;101641.00;4969596;28;20030;-70
2021/08/15 06:20:28;;;;;;;18.10;6.13;;;;;;;17.70;78.86;101650.66;4969237;28;20373;-67
2021/08/15 06:22:53;;;;;;;13.52;5.78;;;;;;;17.72;78.86;101648.78;4965704;28;20037;-67
2021/08/15 06:25:19;;;;;;;18.55;5.95;;;;;;;17.69;78.95;101644.50;4973614;28;20018;-67
2021/08/15 06:27:44;;;;;;;16.63;6.60;;;;;;;17.65;79.05;101639.41;4970049;28;20023;-68
2021/08/15 06:30:11;;;;;;;15.98;6.25;;;;;;;17.62;79.57;101637.78;4970044;28;20026;-68
2021/08/15 06:33:05;;;;;;;18.48;6.15;;;;;;;17.68;79.45;101636.63;4985761;28;20428;-69
2021/08/15 06:35:30;;;;;;;16.33;6.28;;;;;;;17.89;79.02;101629.38;4979710;28;20038;-71
2021/08/15 06:37:56;;;;;;;15.13;5.72;;;;;;;18.11;77.81;101633.59;4984273;28;20503;-70
2021/08/15 06:40:23;;;;;;;18.77;6.00;;;;;;;18.22;77.64;101631.22;4970665;28;20564;-68
2021/08/15 06:42:48;;;;;;;14.95;5.63;;;;;;;18.22;77.41;101637.41;4974536;28;20050;-67
2021/08/15 06:45:14;;;;;;;19.02;6.50;;;;;;;18.18;77.22;101635.88;4972391;28;20073;-67
2021/08/15 06:47:39;;;;;;;15.38;6.07;;;;;;;18.24;77.70;101634.66;4973480;28;20141;-71
2021/08/15 06:50:06;;;;;;;21.40;6.35;;;;;;;18.33;76.75;101633.31;4986544;28;20030;-69
2021/08/15 06:52:31;;;;;;;15.63;5.53;;;;;;;18.47;76.79;101636.13;4974461;28;20042;-68
2021/08/15 06:54:57;;;;;;;16.38;6.32;;;;;;;18.70;76.05;101640.19;4982484;28;20027;-67
2021/08/15 06:57:23;;;;;;;20.00;6.05;;;;;;;18.87;74.86;101631.28;4969153;28;20519;-68
2021/08/15 06:59:48;;;;;;;18.83;6.72;;;;;;;18.93;74.74;101631.91;4985423;28;20027;-69
2021/08/15 07:02:14;;;;;;;16.90;6.03;;;;;;;19.03;74.43;101626.00;4962580;28;20499;-68
2021/08/15 07:04:39;;;;;;;15.70;6.97;;;;;;;19.18;74.07;101626.91;4977013;28;20463;-67
2021/08/15 07:07:04;;;;;;;17.48;6.53;;;;;;;19.26;73.86;101626.47;4966103;28;20023;-70
2021/08/15 07:09:29;;;;;;;13.77;6.43;;;;;;;19.33;72.97;101630.50;4969036;28;20031;-67
2021/08/15 07:11:55;;;;;;;19.67;6.07;;;;;;;19.25;73.33;101629.22;4965394;28;20030;-69
2021/08/15 07:14:20;;;;;;;16.50;6.68;;;;;;;19.29;73.32;101636.09;4967051;28;20027;-67
2021/08/15 07:16:45;;;;;;;15.55;5.55;;;;;;;19.47;72.57;101632.41;4970874;28;20034;-68
2021/08/15 07:19:11;;;;;;;19.48;6.30;;;;;;;19.56;72.73;101635.44;4977141;28;20069;-67
2021/08/15 07:21:36;;;;;;;17.67;6.45;;;;;;;19.76;71.96;101632.47;4989076;28;20030;-67
2021/08/15 07:24:01;;;;;;;17.27;5.43;;;;;;;19.96;72.05;101630.47;4977775;28;20039;-69
2021/08/15 07:26:27;;;;;;;21.38;7.22;;;;;;;20.09;70.36;101619.91;4991644;28;20045;-67
2021/08/15 07:28:53;;;;;;;21.00;6.50;;;;;;;20.22;69.42;101620.00;4995938;28;20078;-67
2021/08/15 07:31:18;;;;;;;18.85;6.18;;;;;;;20.19;69.25;101614.91;4983042;28;20402;-69
2021/08/15 07:33:44;;;;;;;21.15;7.32;;;;;;;20.27;68.88;101625.94;4988657;28;20404;-69
2021/08/15 07:36:09;;;;;;;18.42;7.18;;;;;;;20.28;68.97;101622.31;4970276;28;20546;-67
2021/08/15 07:38:34;;;;;;;22.20;6.75;;;;;;;20.36;67.95;101617.38;4961412;28;20035;-68
2021/08/15 07:41:00;;;;;;;16.48;6.10;;;;;;;20.42;68.31;101619.66;4967722;28;20499;-66
2021/08/15 07:43:25;;;;;;;20.15;6.20;;;;;;;20.47;68.26;101619.38;4972180;28;20023;-67
2021/08/15 07:45:51;;;;;;;19.38;5.55;;;;;;;20.62;67.66;101613.06;4980371;28;20113;-67
2021/08/15 07:48:17;;;;;;;17.02;5.78;;;;;;;20.71;67.22;101624.09;4956296;28;20039;-69
2021/08/15 07:50:42;;;;;;;18.90;6.60;;;;;;;20.67;66.79;101617.25;4965406;28;20038;-66
2021/08/15 07:53:15;;;;;;;15.60;5.70;;;;;;;20.80;66.78;101616.41;4978985;28;20050;-70
2021/08/15 07:55:40;;;;;;;21.13;6.53;;;;;;;20.98;66.08;101612.66;4983193;28;20126;-69
2021/08/15 07:58:05;;;;;;;18.08;6.78;;;;;;;21.11;65.92;101617.09;4983905;28;20109;-67
2021/08/15 08:00:31;;;;;;;14.82;5.43;;;;;;;21.42;65.15;101619.53;4981215;28;20403;-67
2021/08/15 08:02:56;;;;;;;20.45;6.85;;;;;;;21.68;63.17;101612.50;4965043;28;20039;-68
2021/08/15 08:05:21;;;;;;;17.35;6.10;;;;;;;22.07;61.77;101615.22;4968010;28;20031;-66
2021/08/15 08:07:47;;;;;;;20.60;6.45;;;;;;;22.39;60.75;101618.31;4966205;28;20747;-65
2021/08/15 08:10:12;;;;;;;17.52;6.50;;;;;;;22.83;59.71;101616.06;4979020;28;20482;-68
2021/08/15 08:12:37;;;;;;;16.33;6.70;;;;;;;23.58;57.18;101618.66;4975389;28;20092;-68
2021/08/15 08:15:03;;;;;;;17.92;6.47;;;;;;;24.20;54.60;101606.78;4993618;28;20014;-69
2021/08/15 08:17:28;;;;;;;20.08;6.85;;;;;;;25.18;53.06;101613.25;4976943;28;20027;-68
2021/08/15 08:19:54;;;;;;;17.17;6.82;;;;;;;25.99;49.37;101601.13;4983971;28;20416;-68
2021/08/15 08:22:19;;;;;;;20.23;6.78;;;;;;;26.79;47.67;101599.50;4961825;28;20492;-68
2021/08/15 08:24:44;;;;;;;16.60;6.60;;;;;;;27.68;45.57;101605.78;4980262;28;20035;-69
2021/08/15 08:27:10;;;;;;;18.65;7.13;;;;;;;28.16;44.24;101599.44;4977864;28;20026;-68
2021/08/15 08:29:35;;;;;;;16.83;6.60;;;;;;;28.69;42.64;101590.81;4988578;28;20052;-67
2021/08/15 08:32:00;;;;;;;17.27;6.57;;;;;;;28.27;42.82;101589.44;4988734;28;20033;-69
2021/08/15 08:34:26;;;;;;;17.80;6.32;;;;;;;28.55;42.64;101592.16;4989267;28;20033;-66
2021/08/15 08:36:51;;;;;;;16.25;5.90;;;;;;;28.68;41.72;101587.28;4978711;28;20030;-69
2021/08/15 08:39:16;;;;;;;12.88;5.53;;;;;;;28.88;40.97;101589.88;4976544;28;20021;-68
2021/08/15 08:41:42;;;;;;;12.90;5.68;;;;;;;29.17;40.61;101595.00;4967493;28;20396;-68
2021/08/15 08:44:08;;;;;;;17.85;6.03;;;;;;;29.22;40.87;101587.28;4972100;28;20662;-68
2021/08/15 08:46:34;;;;;;;15.32;6.40;;;;;;;29.21;40.72;101582.91;4967605;28;20033;-66
2021/08/15 08:48:59;;;;;;;18.65;6.53;;;;;;;28.61;42.31;101587.00;4965853;28;20027;-67
2021/08/15 08:51:24;;;;;;;17.83;6.25;;;;;;;28.39;42.39;101582.84;4968649;28;20031;-68
2021/08/15 08:53:50;;;;;;;16.42;6.43;;;;;;;28.75;42.00;101582.13;4984396;28;20074;-67
2021/08/15 08:56:16;;;;;;;16.20;6.47;;;;;;;28.39;42.72;101587.41;4983725;28;20055;-67
2021/08/15 08:58:43;;;;;;;18.75;5.93;;;;;;;28.92;41.90;101583.16;4969091;28;20429;-68
2021/08/15 09:01:12;;;;;;;17.00;6.32;;;;;;;28.78;41.67;101582.66;4968558;28;20032;-67
2021/08/15 09:03:37;;;;;;;15.00;6.35;;;;;;;28.37;42.94;101586.69;4963631;28;20118;-69
2021/08/15 09:06:03;;;;;;;18.13;6.38;;;;;;;28.65;42.48;101574.06;4968145;28;20134;-67
2021/08/15 09:08:33;;;;;;;16.85;6.88;;;;;;;28.65;41.42;101571.34;4984163;28;20165;-67
2021/08/15 09:11:19;;;;;;;14.48;5.57;;;;;;;28.74;40.00;101573.19;4968549;28;20027;-67
2021/08/15 09:13:59;;;;;;;13.85;5.35;;;;;;;29.24;38.71;101574.50;4983549;28;20041;-68
2021/08/15 09:16:24;;;;;;;16.10;5.80;;;;;;;28.87;39.29;101572.81;4973958;28;20118;-68
2021/08/15 09:18:50;;;;;;;15.07;5.65;;;;;;;28.80;39.93;101574.41;4947016;28;20115;-69
2021/08/15 09:21:28;;;;;;;14.77;5.78;;;;;;;28.68;40.14;101571.09;4946114;29;20768;-68
2021/08/15 09:24:00;;;;;;;19.35;5.22;;;;;;;29.06;40.66;101570.94;4945476;28;20038;-67
2021/08/15 09:26:26;;;;;;;10.82;5.00;;;;;;;30.06;38.00;101573.41;4946308;29;20027;-68
2021/08/15 09:28:51;;;;;;;13.50;5.47;;;;;;;30.29;38.33;101567.41;4974727;28;20495;-69
2021/08/15 09:31:34;;;;;;;17.17;6.15;;;;;;;29.61;39.76;101565.34;4980998;28;20102;-69
2021/08/15 09:34:01;;;;;;;15.20;5.25;;;;;;;30.21;38.13;101565.53;4981258;28;20057;-68
2021/08/15 09:36:31;;;;;;;15.75;5.68;;;;;;;29.96;38.53;101560.00;4968845;28;20056;-69
2021/08/15 09:38:59;;;;;;;17.45;5.03;;;;;;;30.83;37.02;101564.41;4963500;28;20036;-68
2021/08/15 09:41:36;;;;;;;11.98;5.57;;;;;;;29.87;38.79;101555.53;4967369;28;20031;-68
2021/08/15 09:44:24;;;;;;;12.73;5.47;;;;;;;30.00;38.85;101561.38;4952354;28;20026;-68
2021/08/15 09:47:10;;;;;;;13.75;5.45;;;;;;;30.02;38.34;101550.38;4967532;28;20027;-70
2021/08/15 09:49:46;;;;;;;15.07;5.47;;;;;;;30.00;38.39;101558.66;4951722;28;20055;-68
2021/08/15 09:52:14;;;;;;;13.25;5.65;;;;;;;30.44;37.67;101549.56;4952647;28;20532;-68
2021/08/15 09:54:40;;;;;;;12.75;5.28;;;;;;;30.19;38.28;101552.19;4960024;28;20023;-68
2021/08/15 09:57:09;;;;;;;11.90;5.50;;;;;;;30.07;38.34;101559.72;4968698;28;20060;-68
2021/08/15 09:59:36;;;;;;;15.13;5.50;;;;;;;29.84;38.89;101543.16;4964418;28;20042;-69
2021/08/15 10:02:02;;;;;;;15.90;5.50;;;;;;;29.84;39.01;101542.34;4965892;28;20053;-70
2021/08/15 10:04:28;;;;;;;12.10;5.25;;;;;;;29.84;38.04;101556.69;4971391;28;20019;-68
2021/08/15 10:06:56;;;;;;;12.40;5.30;;;;;;;29.54;38.81;101550.75;4986523;28;20035;-68
2021/08/15 10:09:23;;;;;;;14.25;4.47;;;;;;;29.76;37.11;101543.97;4971424;28;20027;-69
2021/08/15 10:11:48;;;;;;;13.50;4.70;;;;;;;29.89;37.65;101550.81;4964085;28;20019;-68
2021/08/15 10:14:15;;;;;;;10.25;4.10;;;;;;;29.75;38.05;101536.88;4974857;28;20045;-67
2021/08/15 10:16:50;;;;;;;10.35;4.20;;;;;;;29.68;38.52;101527.69;4957817;28;20469;-69
2021/08/15 10:19:19;;;;;;;9.45;4.38;;;;;;;29.17;39.91;101538.28;4963983;28;20034;-68
2021/08/15 10:21:46;;;;;;;9.07;3.83;;;;;;;29.74;39.23;101537.03;4955064;28;20030;-69
2021/08/15 10:24:13;;;;;;;10.57;3.85;;;;;;;29.65;40.04;101532.59;4980186;28;20035;-67
2021/08/15 10:26:46;;;;;;;8.68;3.92;;;;;;;30.24;38.42;101532.72;4960264;28;20388;-67
2021/08/15 10:29:33;;;;;;;7.25;3.33;;;;;;;30.55;38.51;101529.47;4979616;28;20034;-68
2021/08/15 10:32:19;;;;;;;15.18;4.05;;;;;;;30.32;39.14;101527.34;4952676;28;20031;-69
2021/08/15 10:34:50;;;;;;;8.60;3.97;;;;;;;30.06;39.66;101519.31;4959251;28;20472;-69
2021/08/15 10:37:24;;;;;;;9.02;3.58;;;;;;;30.29;39.21;101525.00;4963883;28;20022;-69
2021/08/15 10:39:51;;;;;;;10.50;3.65;;;;;;;29.95;39.80;101506.94;4962014;28;20037;-68
2021/08/15 10:42:47;;;;;;;9.45;3.17;;;;;;;28.94;40.54;101516.34;4964910;28;20046;-68
2021/08/15 10:45:18;;;;;;;8.57;3.50;;;;;;;28.02;42.39;101509.06;4951701;29;20031;-70
2021/08/15 10:48:09;;;;;;;7.82;3.38;;;;;;;28.41;41.78;101501.78;4965792;28;20166;-68
2021/08/15 10:50:55;;;;;;;10.60;3.40;;;;;;;29.30;39.58;101497.44;4955670;28;20039;-69
2021/08/15 10:53:29;;;;;;;8.52;3.33;;;;;;;29.60;38.75;101487.13;4957137;28;20027;-68
2021/08/15 10:56:13;;;;;;;7.68;3.30;;;;;;;29.98;37.48;101493.09;4957768;28;20484;-69
2021/08/15 10:58:50;;;;;;;;;;;;;;;29.66;38.66;101497.31;4971120;28;20038;-68
2021/08/15 11:01:17;;;;;;;8.95;3.63;;;;;;;29.80;38.87;101493.16;4966101;28;19993;-68
2021/08/15 11:03:48;;;;;;;8.52;3.60;;;;;;;29.86;37.46;101505.19;4981575;28;20086;-68
2021/08/15 11:06:36;;;;;;;5.97;2.97;;;;;;;30.27;36.27;101508.06;4960263;28;20086;-69
2021/08/15 11:09:05;;;;;;;7.25;3.78;;;;;;;29.55;36.70;101493.00;4959204;28;20031;-68
2021/08/15 11:11:36;;;;;;;15.40;3.90;;;;;;;29.57;36.15;101503.66;4966722;28;20038;-69
2021/08/15 11:14:24;;;;;;;6.65;3.38;;;;;;;29.50;36.18;101506.16;4960646;28;20106;-68
2021/08/15 11:16:54;;;;;;;9.30;4.15;;;;;;;29.60;35.67;101498.78;4954128;28;20035;-68
2021/08/15 11:19:20;;;;;;;9.38;3.75;;;;;;;30.34;34.66;101501.00;4951113;28;20023;-70